createdAt,value
2023-04-05T17:27:33.894Z,11.60
2023-04-05T17:30:02.010Z,10.10
2023-04-05T17:32:30.078Z,10.10
2023-04-05T17:34:58.092Z,9.90
2023-04-05T17:37:26.079Z,9.80
2023-04-05T17:39:53.881Z,9.70
2023-04-05T17:42:22.311Z,9.60
2023-04-05T17:44:51.473Z,9.60
2023-04-05T17:47:19.395Z,9.50
2023-04-05T17:49:47.193Z,9.40
2023-04-05T17:52:14.976Z,9.30
2023-04-05T17:54:43.319Z,9.20
2023-04-05T17:57:15.440Z,9.10
2023-04-05T17:59:43.912Z,9.10
2023-04-05T18:02:13.339Z,9.00
2023-04-05T18:04:41.767Z,9.00
2023-04-05T18:07:09.599Z,8.90
2023-04-05T18:09:38.386Z,8.80
2023-04-05T18:12:06.593Z,8.80
2023-04-05T18:14:36.164Z,8.70
2023-04-05T18:17:05.793Z,8.60
2023-04-05T18:19:34.903Z,8.60
2023-04-05T18:22:02.722Z,8.50
2023-04-05T18:24:31.075Z,8.50
2023-04-05T18:26:58.856Z,8.40
2023-04-05T18:29:28.560Z,8.40
2023-04-05T18:31:56.840Z,8.40
2023-04-05T18:34:25.131Z,8.40
2023-04-05T18:36:54.281Z,8.30
2023-04-05T18:39:22.088Z,8.20
2023-04-05T18:41:49.912Z,8.20
2023-04-05T18:44:17.709Z,8.20
2023-04-05T18:46:46.116Z,8.20
2023-04-05T18:49:15.703Z,8.10
2023-04-05T18:51:43.542Z,8.10
2023-04-05T18:54:13.848Z,8.10
2023-04-05T18:56:41.895Z,8.00
2023-04-05T18:59:09.970Z,8.00
2023-04-05T19:01:38.413Z,8.00
2023-04-05T19:04:06.342Z,8.00
2023-04-05T19:06:34.686Z,8.00
2023-04-05T19:09:02.484Z,8.00
2023-04-05T19:11:31.610Z,8.00
2023-04-05T19:14:00.434Z,7.90
2023-04-05T21:13:55.296Z,6.40
2023-04-05T21:16:23.125Z,6.30
2023-04-05T21:18:50.953Z,6.40
2023-04-05T21:21:18.710Z,6.40
2023-04-05T21:23:46.487Z,6.40
2023-04-05T21:26:14.263Z,6.40
2023-04-05T21:28:42.044Z,6.40
2023-04-05T21:31:11.520Z,6.40
2023-04-05T21:33:39.384Z,6.40
2023-04-05T21:36:07.574Z,6.40
2023-04-05T21:38:35.460Z,6.30
2023-04-05T21:41:03.242Z,6.40
2023-04-05T21:43:30.996Z,6.30
2023-04-05T21:45:58.753Z,6.30
2023-04-05T21:48:28.248Z,6.30
2023-04-05T21:50:56.193Z,6.30
2023-04-05T21:53:25.282Z,6.30
2023-04-05T21:55:53.189Z,6.30
2023-04-05T21:58:21.024Z,6.20
2023-04-05T22:00:48.841Z,6.20
2023-04-05T22:03:16.691Z,6.20
2023-04-05T22:05:45.868Z,6.20
2023-04-05T22:08:13.664Z,6.20
2023-04-05T22:10:41.478Z,6.10
2023-04-05T22:13:09.245Z,6.10
2023-04-05T22:15:37.064Z,6.10
2023-04-05T22:18:05.639Z,6.10
2023-04-05T22:20:33.629Z,6.10
2023-04-05T22:23:02.765Z,6.10
2023-04-05T22:25:30.555Z,6.00
2023-04-05T22:28:00.193Z,6.00
2023-04-05T22:30:28.820Z,6.00
2023-04-05T22:32:56.770Z,6.00
2023-04-05T22:35:24.778Z,5.90
